Time;durP1;ratioP1;P1;durP2;ratioP2;P2;SDS_P1;SDS_P2;PMS_P1;PMS_P2;Temp;Humidity;BMP_temperature;BMP_pressure;BME280_temperature;BME280_humidity;BME280_pressure;Samples;Min_cycle;Max_cycle;Signal;HPM_P1;HPM_P2
2024/03/17 00:01:42;;;;;;;0.43;0.43;;;;;;;10.22;93.47;99831.97;5075527;28;20044;-63
2024/03/17 00:04:10;;;;;;;0.50;0.50;;;;;;;10.32;93.31;99851.56;5092850;28;20090;-64
2024/03/17 00:06:37;;;;;;;0.60;0.60;;;;;;;10.34;93.73;99852.44;5092451;28;20059;-64
2024/03/17 00:09:09;;;;;;;0.40;0.40;;;;;;;10.35;93.41;99856.69;5092531;28;20048;-64
2024/03/17 00:11:36;;;;;;;0.60;0.60;;;;;;;10.36;93.76;99866.06;5092173;28;20032;-64
2024/03/17 00:14:05;;;;;;;0.40;0.40;;;;;;;10.39;93.34;99871.16;5092410;28;20436;-64
2024/03/17 00:16:31;;;;;;;0.40;0.40;;;;;;;10.39;93.64;99873.69;5075368;28;20521;-64
2024/03/17 00:18:59;;;;;;;0.60;0.60;;;;;;;10.43;93.69;99872.03;5075503;28;20044;-64
2024/03/17 00:21:26;;;;;;;0.57;0.57;;;;;;;10.45;93.47;99880.53;5075265;28;20529;-64
2024/03/17 00:23:54;;;;;;;0.73;0.73;;;;;;;10.45;93.28;99880.53;5092381;28;20478;-64
2024/03/17 00:26:22;;;;;;;1.02;0.98;;;;;;;10.44;93.50;99889.88;5092293;28;20040;-64
2024/03/17 00:28:51;;;;;;;0.95;0.70;;;;;;;10.45;93.03;99886.50;5091977;28;20036;-64
2024/03/17 00:31:18;;;;;;;1.00;0.98;;;;;;;10.40;93.25;99883.06;5092005;28;20078;-64
2024/03/17 00:33:46;;;;;;;0.85;0.80;;;;;;;10.42;92.95;99891.59;5091874;28;20032;-64
2024/03/17 00:36:14;;;;;;;0.50;0.50;;;;;;;10.43;92.47;99890.75;5091914;28;20093;-63
2024/03/17 00:38:41;;;;;;;0.40;0.40;;;;;;;10.40;92.14;99898.38;5092259;28;20048;-64
2024/03/17 00:41:08;;;;;;;0.65;0.65;;;;;;;10.41;91.62;99899.25;5094396;28;20079;-64
2024/03/17 00:43:37;;;;;;;0.40;0.40;;;;;;;10.41;91.57;99889.91;5095496;28;20085;-64
2024/03/17 00:46:05;;;;;;;0.50;0.50;;;;;;;10.42;90.94;99893.28;5096082;28;20040;-64
2024/03/17 00:48:31;;;;;;;0.60;0.60;;;;;;;10.38;90.16;99902.63;5112493;28;20040;-64
2024/03/17 00:50:59;;;;;;;1.55;1.27;;;;;;;10.38;89.87;99909.44;5078419;28;20047;-65
2024/03/17 00:53:26;;;;;;;0.50;0.50;;;;;;;10.35;89.77;99917.06;5095617;28;20036;-65
2024/03/17 00:55:54;;;;;;;0.40;0.40;;;;;;;10.30;88.90;99922.16;5095276;28;20040;-64
2024/03/17 00:58:21;;;;;;;0.40;0.40;;;;;;;10.28;88.99;99918.75;5095514;28;20040;-65
2024/03/17 01:00:50;;;;;;;0.57;0.57;;;;;;;10.23;88.32;99909.38;5095648;28;20044;-65
2024/03/17 01:03:17;;;;;;;0.40;0.40;;;;;;;10.17;87.64;99912.75;5095493;28;20109;-64
2024/03/17 01:05:47;;;;;;;0.65;0.65;;;;;;;10.03;86.75;99896.47;5095459;28;20071;-64
2024/03/17 01:08:14;;;;;;;0.40;0.40;;;;;;;10.13;86.61;99916.13;5077873;28;20044;-65
2024/03/17 01:10:42;;;;;;;0.45;0.45;;;;;;;10.11;86.07;99915.22;5078423;28;20036;-64
2024/03/17 01:13:11;;;;;;;0.82;0.63;;;;;;;10.09;85.80;99911.81;5095503;28;20089;-65
2024/03/17 01:15:39;;;;;;;0.55;0.55;;;;;;;10.06;85.62;99906.69;5095307;28;20044;-65
2024/03/17 01:18:09;;;;;;;0.88;0.88;;;;;;;10.04;85.57;99905.84;5078516;28;20043;-64
2024/03/17 01:20:37;;;;;;;0.73;0.73;;;;;;;9.87;85.01;99872.63;5095274;28;20093;-64
2024/03/17 01:23:05;;;;;;;0.63;0.63;;;;;;;10.01;85.11;99893.06;5078355;28;20032;-65
2024/03/17 01:25:36;;;;;;;0.60;0.60;;;;;;;10.00;84.02;99896.50;5095131;28;20056;-64
2024/03/17 01:28:04;;;;;;;0.70;0.70;;;;;;;9.98;84.27;99886.25;5094762;28;20089;-64
2024/03/17 01:30:32;;;;;;;0.40;0.40;;;;;;;9.98;83.35;99893.09;5094844;28;20044;-64
2024/03/17 01:33:00;;;;;;;0.80;0.80;;;;;;;9.91;83.59;99881.16;5078135;28;20036;-64
2024/03/17 01:35:28;;;;;;;0.63;0.63;;;;;;;9.87;83.25;99872.63;5094858;28;20040;-64
2024/03/17 01:37:56;;;;;;;0.68;0.68;;;;;;;9.84;82.61;99895.53;5094582;28;20119;-65
2024/03/17 01:40:23;;;;;;;0.40;0.40;;;;;;;9.82;82.42;99896.38;5094825;28;20052;-64
2024/03/17 01:42:50;;;;;;;0.95;0.82;;;;;;;9.78;82.60;99894.66;5094823;28;20047;-64
2024/03/17 01:45:36;;;;;;;0.50;0.50;;;;;;;9.74;81.78;99906.53;5094342;28;20078;-64
2024/03/17 01:48:05;;;;;;;1.58;1.23;;;;;;;9.75;81.73;99915.03;5077624;28;20547;-64
2024/03/17 01:50:35;;;;;;;0.65;0.65;;;;;;;9.70;81.74;99916.69;5077693;28;20036;-64
2024/03/17 01:53:05;;;;;;;0.47;0.47;;;;;;;9.69;82.20;99920.97;5093656;28;20052;-64
2024/03/17 01:55:33;;;;;;;0.40;0.40;;;;;;;9.55;81.80;99911.50;5094121;28;20529;-64
2024/03/17 01:58:03;;;;;;;0.40;0.40;;;;;;;9.50;81.54;99908.06;5094512;28;20046;-65
2024/03/17 02:00:31;;;;;;;0.60;0.60;;;;;;;9.55;81.68;99931.91;5094758;28;20074;-64
2024/03/17 02:02:59;;;;;;;0.40;0.40;;;;;;;9.51;81.98;99940.34;5094695;28;20482;-64
2024/03/17 02:05:26;;;;;;;0.60;0.60;;;;;;;9.54;81.58;99940.38;5094319;28;20059;-64
2024/03/17 02:07:56;;;;;;;0.43;0.43;;;;;;;9.54;81.89;99935.28;5094237;28;20036;-64
2024/03/17 02:10:23;;;;;;;0.50;0.50;;;;;;;9.51;81.25;99936.09;5077377;28;20040;-64
2024/03/17 02:12:50;;;;;;;0.38;0.38;;;;;;;9.45;81.66;99942.00;5093990;28;20539;-64
2024/03/17 02:15:17;;;;;;;1.38;1.15;;;;;;;9.40;82.12;99943.69;5094317;28;20054;-64
2024/03/17 02:17:45;;;;;;;0.38;0.38;;;;;;;9.31;81.73;99942.72;5093988;28;20558;-64
2024/03/17 02:20:13;;;;;;;0.40;0.40;;;;;;;9.37;81.57;99947.88;5077311;28;20048;-65
2024/03/17 02:22:43;;;;;;;0.40;0.40;;;;;;;9.35;81.81;99950.41;5094023;28;20086;-64
2024/03/17 02:25:10;;;;;;;0.30;0.30;;;;;;;9.32;82.10;99957.16;5094096;28;20033;-64
2024/03/17 02:27:38;;;;;;;0.40;0.40;;;;;;;9.21;81.47;99921.41;5076974;28;20490;-64
2024/03/17 02:30:08;;;;;;;0.65;0.65;;;;;;;9.30;81.50;99946.13;5093764;28;20040;-64
2024/03/17 02:32:36;;;;;;;0.40;0.40;;;;;;;9.16;81.13;99938.38;5076959;28;20048;-64
2024/03/17 02:35:05;;;;;;;0.40;0.40;;;;;;;9.19;80.92;99947.72;5093781;28;20067;-63
2024/03/17 02:37:33;;;;;;;0.30;0.30;;;;;;;9.11;81.36;99950.22;5093667;28;20059;-64
2024/03/17 02:40:01;;;;;;;0.55;0.55;;;;;;;8.95;81.33;99948.31;5094262;28;20475;-64
2024/03/17 02:42:29;;;;;;;0.40;0.40;;;;;;;8.86;81.68;99955.88;5093652;28;20047;-64
2024/03/17 02:44:56;;;;;;;0.55;0.55;;;;;;;8.76;81.70;99956.59;5076455;28;20036;-64
2024/03/17 02:47:25;;;;;;;0.85;0.82;;;;;;;8.73;82.20;99956.59;5093466;28;20047;-64
2024/03/17 02:49:53;;;;;;;0.40;0.40;;;;;;;8.70;81.38;99948.91;5093546;28;20040;-64
2024/03/17 02:52:21;;;;;;;0.40;0.40;;;;;;;8.68;81.04;99948.06;5093131;28;20044;-64
2024/03/17 02:54:48;;;;;;;0.30;0.30;;;;;;;8.63;80.58;99944.59;5093201;28;20075;-64
2024/03/17 02:57:18;;;;;;;0.60;0.60;;;;;;;8.55;80.75;99931.78;5076206;28;20494;-64
2024/03/17 02:59:46;;;;;;;0.55;0.55;;;;;;;8.53;79.11;99943.66;5093888;28;20481;-64
2024/03/17 03:02:14;;;;;;;0.40;0.40;;;;;;;8.47;79.42;99943.56;5092872;28;20048;-64
2024/03/17 03:04:41;;;;;;;0.50;0.50;;;;;;;8.43;78.80;99946.06;5093039;28;20058;-64
2024/03/17 03:07:09;;;;;;;0.38;0.38;;;;;;;8.42;78.41;99944.38;5093069;28;20105;-64
2024/03/17 03:09:37;;;;;;;0.30;0.30;;;;;;;8.43;78.33;99951.13;5093454;28;20547;-64
2024/03/17 03:12:06;;;;;;;0.20;0.20;;;;;;;8.41;78.09;99952.81;5092750;28;20040;-64
2024/03/17 03:14:36;;;;;;;0.50;0.50;;;;;;;8.37;77.24;99953.63;5093178;28;20032;-64
2024/03/17 03:17:04;;;;;;;0.30;0.30;;;;;;;8.31;76.97;99951.00;5093062;28;20048;-64
2024/03/17 03:19:32;;;;;;;0.40;0.40;;;;;;;8.26;76.86;99957.66;5093081;28;20074;-64
2024/03/17 03:22:00;;;;;;;0.45;0.45;;;;;;;8.19;76.51;99960.97;5092991;28;20040;-64
2024/03/17 03:24:28;;;;;;;0.40;0.40;;;;;;;8.15;76.58;99974.47;5092962;28;20040;-64
2024/03/17 03:26:55;;;;;;;0.30;0.30;;;;;;;8.07;76.49;99976.91;5092682;28;20043;-64
2024/03/17 03:29:23;;;;;;;0.30;0.30;;;;;;;7.96;75.92;99979.31;5092855;28;20081;-64
2024/03/17 03:31:52;;;;;;;0.30;0.30;;;;;;;7.96;76.92;99979.31;5092641;28;20079;-64
2024/03/17 03:34:20;;;;;;;0.50;0.50;;;;;;;7.69;76.68;99943.34;5075867;28;20039;-64
2024/03/17 03:36:48;;;;;;;0.47;0.47;;;;;;;7.82;76.84;99987.56;5092664;28;20044;-64
2024/03/17 03:39:16;;;;;;;0.70;0.70;;;;;;;7.77;76.30;99992.59;5092411;28;20044;-64
2024/03/17 03:41:44;;;;;;;0.35;0.35;;;;;;;7.80;76.64;99996.81;5092896;28;20090;-64
2024/03/17 03:44:12;;;;;;;0.40;0.40;;;;;;;7.81;76.39;100001.94;5075874;28;20516;-65
2024/03/17 03:46:40;;;;;;;0.30;0.30;;;;;;;7.82;76.07;100001.09;5092778;28;20040;-65
2024/03/17 03:49:09;;;;;;;0.77;0.77;;;;;;;7.81;76.52;100003.63;5092838;28;20062;-64
2024/03/17 03:51:37;;;;;;;0.30;0.30;;;;;;;7.80;76.17;100012.94;5092348;28;20040;-64
2024/03/17 03:54:06;;;;;;;0.30;0.30;;;;;;;7.71;76.70;100011.94;5092671;28;20062;-64
2024/03/17 03:56:33;;;;;;;0.40;0.40;;;;;;;7.73;76.79;100016.22;5035647;28;20045;-64
2024/03/17 03:59:01;;;;;;;0.30;0.30;;;;;;;7.68;76.86;100005.13;5052128;28;20062;-64
2024/03/17 04:01:29;;;;;;;0.40;0.40;;;;;;;7.76;77.48;100023.88;5052383;28;20037;-64
2024/03/17 04:03:57;;;;;;;4.75;1.35;;;;;;;7.73;77.25;100021.28;5052298;28;20155;-64
2024/03/17 04:06:26;;;;;;;0.35;0.35;;;;;;;7.73;76.40;100021.28;5052393;28;20125;-64
2024/03/17 04:08:54;;;;;;;0.40;0.40;;;;;;;7.73;76.73;100025.50;5051941;28;20034;-64
2024/03/17 04:11:21;;;;;;;0.52;0.52;;;;;;;7.77;76.14;100017.13;5052130;28;20087;-64
2024/03/17 04:13:49;;;;;;;0.52;0.50;;;;;;;7.71;76.58;100017.88;5052509;28;20044;-65
2024/03/17 04:16:17;;;;;;;0.40;0.40;;;;;;;7.63;76.49;100016.06;5054509;28;20059;-64
2024/03/17 04:18:45;;;;;;;0.40;0.40;;;;;;;7.61;76.87;100021.09;5056155;28;20043;-64
2024/03/17 04:21:13;;;;;;;0.57;0.47;;;;;;;7.62;77.35;100017.72;5056072;28;20041;-64
2024/03/17 04:23:42;;;;;;;0.50;0.50;;;;;;;7.55;77.07;100010.84;5055869;28;20041;-64
2024/03/17 04:26:10;;;;;;;0.52;0.52;;;;;;;7.54;77.34;100024.34;5056284;28;20041;-65
2024/03/17 04:28:37;;;;;;;0.85;0.65;;;;;;;7.56;77.33;100022.69;5039143;28;20041;-64
2024/03/17 04:31:06;;;;;;;0.50;0.50;;;;;;;7.48;77.09;100009.03;5055756;28;20041;-65
2024/03/17 04:33:34;;;;;;;0.55;0.55;;;;;;;7.51;76.56;100024.31;5056200;28;20041;-65
2024/03/17 04:36:03;;;;;;;1.00;1.00;;;;;;;7.45;76.64;100029.28;5055623;28;20044;-64
2024/03/17 04:38:31;;;;;;;0.40;0.40;;;;;;;7.36;76.99;100018.97;5055785;28;20395;-64
2024/03/17 04:41:05;;;;;;;0.30;0.30;;;;;;;7.38;76.74;100032.56;5055681;28;20268;-64
2024/03/17 04:43:33;;;;;;;0.30;0.30;;;;;;;7.34;76.67;100035.88;5055472;28;20043;-66
2024/03/17 04:46:03;;;;;;;0.55;0.55;;;;;;;7.32;76.42;100034.97;5055293;28;20033;-64
2024/03/17 04:48:32;;;;;;;0.40;0.40;;;;;;;7.26;76.62;100029.78;5055619;28;20045;-64
2024/03/17 04:51:00;;;;;;;0.50;0.50;;;;;;;7.24;75.81;100039.06;5055431;28;20048;-65
2024/03/17 04:53:29;;;;;;;0.32;0.32;;;;;;;7.24;76.19;100045.00;5055932;28;20041;-65
2024/03/17 04:56:04;;;;;;;0.47;0.47;;;;;;;7.16;75.83;100023.69;5085081;28;20048;-64
2024/03/17 04:58:32;;;;;;;0.73;0.70;;;;;;;7.29;76.44;100042.56;5062183;28;20081;-65
2024/03/17 05:01:06;;;;;;;0.35;0.35;;;;;;;7.26;75.56;100043.34;5095545;28;20044;-65
2024/03/17 05:03:34;;;;;;;0.43;0.43;;;;;;;7.24;75.71;100044.16;5079153;28;20044;-65
2024/03/17 05:06:03;;;;;;;2.25;1.50;;;;;;;7.21;76.15;100055.09;5095935;28;20546;-65
2024/03/17 05:08:31;;;;;;;0.40;0.40;;;;;;;7.22;76.22;100061.03;5095325;28;20497;-65
2024/03/17 05:10:59;;;;;;;1.90;1.23;;;;;;;7.20;75.85;100062.66;5094924;28;20033;-65
2024/03/17 05:13:29;;;;;;;0.30;0.30;;;;;;;7.19;75.90;100060.97;5095075;28;20033;-65
2024/03/17 05:15:57;;;;;;;0.60;0.60;;;;;;;7.20;75.60;100062.66;5078276;28;20032;-65
2024/03/17 05:18:25;;;;;;;0.32;0.32;;;;;;;7.20;75.16;100072.81;5095292;28;20048;-64
2024/03/17 05:21:00;;;;;;;0.73;0.73;;;;;;;7.12;75.62;100060.00;5095302;28;20059;-64
2024/03/17 05:23:29;;;;;;;0.35;0.35;;;;;;;7.06;75.96;100048.88;5095248;28;20071;-65
2024/03/17 05:25:57;;;;;;;0.35;0.35;;;;;;;7.22;75.74;100071.19;5078247;28;20040;-65
2024/03/17 05:28:26;;;;;;;0.30;0.30;;;;;;;7.11;75.08;100067.56;5078223;28;20117;-65
2024/03/17 05:30:56;;;;;;;0.52;0.52;;;;;;;7.17;74.76;100076.19;5094970;28;20516;-65
2024/03/17 05:33:26;;;;;;;2.78;0.88;;;;;;;7.17;75.11;100077.84;5094930;28;20048;-64
2024/03/17 05:35:56;;;;;;;0.30;0.30;;;;;;;7.16;75.27;100076.13;5094631;28;20055;-64
2024/03/17 05:38:24;;;;;;;0.40;0.40;;;;;;;7.12;74.78;100061.69;5095214;28;20465;-64
2024/03/17 05:40:56;;;;;;;0.40;0.40;;;;;;;7.16;75.17;100078.69;5094891;28;20154;-65
2024/03/17 05:43:25;;;;;;;0.30;0.30;;;;;;;7.13;74.62;100076.06;5078045;28;20036;-65
2024/03/17 05:45:55;;;;;;;0.30;0.30;;;;;;;7.18;75.14;100079.56;5094725;28;20044;-66
2024/03/17 05:48:24;;;;;;;0.38;0.38;;;;;;;7.19;74.77;100081.28;5077780;28;20261;-65
2024/03/17 05:50:52;;;;;;;0.52;0.52;;;;;;;7.14;74.43;100067.66;5077713;28;20036;-65
2024/03/17 05:53:23;;;;;;;0.50;0.50;;;;;;;7.29;74.08;100084.00;5094256;28;20032;-65
2024/03/17 05:55:51;;;;;;;0.70;0.70;;;;;;;7.39;74.14;100079.94;5077335;28;20063;-65
2024/03/17 05:58:19;;;;;;;0.25;0.25;;;;;;;7.41;74.20;100075.78;5077714;28;20036;-65
2024/03/17 06:00:47;;;;;;;0.88;0.88;;;;;;;7.57;74.10;100090.47;5077514;28;20414;-64
2024/03/17 06:03:17;;;;;;;1.33;0.88;;;;;;;7.70;72.99;100096.63;5094368;28;20048;-65
2024/03/17 06:05:46;;;;;;;0.30;0.30;;;;;;;7.80;72.81;100098.47;5094136;28;20094;-65
2024/03/17 06:08:14;;;;;;;0.50;0.50;;;;;;;7.91;73.28;100099.50;5077477;28;20043;-65
2024/03/17 06:10:45;;;;;;;0.50;0.50;;;;;;;7.98;71.72;100094.56;5094411;28;20090;-65
2024/03/17 06:13:15;;;;;;;0.40;0.40;;;;;;;8.07;71.94;100102.31;5094039;28;20047;-65
2024/03/17 06:15:44;;;;;;;0.40;0.40;;;;;;;8.15;72.04;100106.69;5094258;28;20093;-66
2024/03/17 06:18:14;;;;;;;0.40;0.40;;;;;;;8.21;71.28;100102.53;5094079;28;20055;-65
2024/03/17 06:20:44;;;;;;;0.77;0.60;;;;;;;8.32;71.20;100110.38;5077584;28;20048;-65
2024/03/17 06:23:12;;;;;;;0.45;0.45;;;;;;;8.43;70.09;100117.31;5077806;28;20051;-65
2024/03/17 06:25:42;;;;;;;0.45;0.45;;;;;;;8.53;70.54;100121.72;5093894;28;20062;-65
2024/03/17 06:28:13;;;;;;;0.50;0.50;;;;;;;8.61;69.54;100119.28;5093951;28;20047;-65
2024/03/17 06:30:42;;;;;;;0.57;0.57;;;;;;;8.56;69.24;100090.38;5077065;28;20044;-65
2024/03/17 06:33:12;;;;;;;0.50;0.50;;;;;;;8.84;69.03;100122.97;5093553;28;20059;-66
2024/03/17 06:35:40;;;;;;;0.65;0.65;;;;;;;9.00;68.90;100119.78;5093823;28;20478;-67
2024/03/17 06:38:10;;;;;;;0.60;0.60;;;;;;;9.08;67.77;100127.53;5076263;28;20093;-65
2024/03/17 06:40:38;;;;;;;0.75;0.70;;;;;;;9.16;68.44;100133.59;5093790;28;20494;-65
2024/03/17 06:43:07;;;;;;;0.30;0.30;;;;;;;9.25;67.38;100137.09;5093042;28;20048;-66
2024/03/17 06:45:35;;;;;;;0.73;0.73;;;;;;;9.38;66.17;100146.56;5093105;28;20040;-67
2024/03/17 06:48:03;;;;;;;3.03;1.95;;;;;;;9.47;66.28;100142.44;5076578;28;20036;-66
2024/03/17 06:50:31;;;;;;;0.40;0.40;;;;;;;9.51;65.09;100146.72;5093248;28;20037;-66
2024/03/17 06:52:59;;;;;;;0.30;0.30;;;;;;;9.61;64.55;100151.06;5093128;28;20036;-65
2024/03/17 06:55:28;;;;;;;0.40;0.40;;;;;;;9.68;63.50;100152.84;5076180;28;20070;-66
2024/03/17 06:57:56;;;;;;;0.98;0.63;;;;;;;9.71;62.52;100157.97;5093136;28;20044;-67
2024/03/17 07:00:25;;;;;;;0.43;0.43;;;;;;;9.68;60.87;100163.03;5093299;28;20032;-67
2024/03/17 07:02:52;;;;;;;20.97;3.97;;;;;;;9.76;61.04;100158.88;5093067;28;20052;-67
2024/03/17 07:05:20;;;;;;;0.50;0.50;;;;;;;9.83;60.61;100161.50;5093154;28;20036;-66
2024/03/17 07:07:48;;;;;;;0.30;0.30;;;;;;;9.86;59.51;100165.78;5093179;28;20047;-66
2024/03/17 07:10:16;;;;;;;2.47;1.50;;;;;;;9.95;59.40;100168.41;5076178;28;20097;-67
2024/03/17 07:12:48;;;;;;;0.30;0.30;;;;;;;9.93;59.05;100159.91;5076516;28;20048;-66
2024/03/17 07:15:16;;;;;;;0.93;0.75;;;;;;;9.94;58.91;100151.41;5093105;28;20047;-66
2024/03/17 07:17:43;;;;;;;0.65;0.65;;;;;;;10.13;57.91;100173.72;5092795;28;20517;-66
2024/03/17 07:20:12;;;;;;;0.45;0.45;;;;;;;10.16;57.79;100173.75;5092979;28;20041;-66
2024/03/17 07:22:40;;;;;;;0.45;0.45;;;;;;;10.22;57.08;100173.78;5093066;28;20498;-67
2024/03/17 07:25:09;;;;;;;0.40;0.40;;;;;;;10.31;56.19;100168.78;5093006;28;20406;-67
2024/03/17 07:27:38;;;;;;;1.90;0.73;;;;;;;10.32;54.45;100165.38;5092888;28;20040;-66
2024/03/17 07:30:09;;;;;;;1.10;1.00;;;;;;;10.33;54.97;100159.44;5076130;28;20090;-66
2024/03/17 07:32:37;;;;;;;0.65;0.65;;;;;;;10.41;55.34;100162.91;5076043;28;20070;-66
2024/03/17 07:35:05;;;;;;;2.78;0.70;;;;;;;10.42;54.32;100159.50;5075891;28;20090;-66
2024/03/17 07:37:33;;;;;;;0.47;0.40;;;;;;;10.44;53.81;100174.81;5092808;28;20066;-67
2024/03/17 07:40:06;;;;;;;0.50;0.50;;;;;;;10.42;53.11;100171.41;5092643;28;20482;-67
2024/03/17 07:42:34;;;;;;;0.50;0.50;;;;;;;10.42;53.12;100177.38;5076006;28;20051;-67
2024/03/17 07:45:01;;;;;;;0.50;0.50;;;;;;;10.54;52.32;100172.34;5075855;28;20040;-65
2024/03/17 07:47:35;;;;;;;0.40;0.40;;;;;;;10.52;52.57;100178.28;5092463;28;20117;-68
2024/03/17 07:50:05;;;;;;;0.50;0.50;;;;;;;10.54;51.79;100172.34;5092646;28;20627;-68
2024/03/17 07:52:33;;;;;;;1.63;0.60;;;;;;;10.63;51.57;100162.19;5096260;28;20048;-67
2024/03/17 07:55:02;;;;;;;0.47;0.47;;;;;;;10.60;52.50;100162.19;5079304;28;20568;-68
2024/03/17 07:57:29;;;;;;;1.13;1.05;;;;;;;10.71;52.74;100164.81;5096308;28;20040;-68
2024/03/17 07:59:57;;;;;;;0.32;0.32;;;;;;;10.74;52.10;100155.47;5096770;28;20032;-67
2024/03/17 08:02:25;;;;;;;0.30;0.30;;;;;;;10.80;52.18;100158.91;5096556;28;20055;-69
2024/03/17 08:04:54;;;;;;;0.73;0.70;;;;;;;10.89;52.58;100159.81;5096880;28;20448;-66
2024/03/17 08:07:22;;;;;;;0.50;0.50;;;;;;;11.00;52.32;100158.19;5096436;28;20074;-68
2024/03/17 08:09:50;;;;;;;0.30;0.30;;;;;;;11.08;52.17;100161.63;5079746;28;20040;-70
2024/03/17 08:12:18;;;;;;;0.30;0.30;;;;;;;11.14;51.44;100159.09;5079490;28;20032;-67
2024/03/17 08:14:45;;;;;;;0.35;0.35;;;;;;;11.13;51.52;100156.53;5096633;28;20082;-67
2024/03/17 08:17:13;;;;;;;0.40;0.40;;;;;;;11.33;51.66;100162.56;5096330;28;20486;-68
2024/03/17 08:19:41;;;;;;;0.40;0.40;;;;;;;11.45;52.33;100157.50;5096383;28;20036;-67
2024/03/17 08:22:10;;;;;;;0.40;0.40;;;;;;;11.52;51.92;100159.22;5096620;28;20036;-67
2024/03/17 08:24:38;;;;;;;0.40;0.40;;;;;;;11.57;51.72;100161.78;5096255;28;20036;-67
2024/03/17 08:27:06;;;;;;;0.90;0.90;;;;;;;11.68;51.95;100161.03;5095757;28;20078;-66
2024/03/17 08:29:34;;;;;;;0.98;0.60;;;;;;;11.75;52.00;100141.44;5095911;28;20040;-67
2024/03/17 08:32:02;;;;;;;0.55;0.55;;;;;;;11.81;51.61;100160.19;5095817;28;20047;-68
2024/03/17 08:34:29;;;;;;;0.40;0.40;;;;;;;11.76;51.25;100161.03;5095794;28;20040;-68
2024/03/17 08:36:57;;;;;;;0.47;0.47;;;;;;;11.77;51.00;100166.16;5096043;28;20040;-67
2024/03/17 08:39:27;;;;;;;0.40;0.40;;;;;;;11.60;50.44;100162.69;5095741;28;20040;-67
2024/03/17 08:41:55;;;;;;;0.50;0.50;;;;;;;11.71;50.71;100153.34;5095766;28;20402;-69
2024/03/17 08:44:23;;;;;;;0.80;0.80;;;;;;;11.65;51.18;100155.88;5096132;28;20402;-69
2024/03/17 08:46:51;;;;;;;0.50;0.50;;;;;;;11.89;51.59;100150.84;5095493;28;20032;-67
2024/03/17 08:49:18;;;;;;;0.50;0.50;;;;;;;12.19;52.08;100151.72;5095701;28;20037;-68
2024/03/17 08:51:46;;;;;;;0.40;0.40;;;;;;;12.43;52.18;100154.28;5095840;28;20059;-68
2024/03/17 08:54:14;;;;;;;0.50;0.50;;;;;;;12.56;52.34;100158.53;5095246;28;20081;-69
2024/03/17 08:56:43;;;;;;;0.73;0.73;;;;;;;12.59;51.80;100150.84;5078912;28;20047;-67
2024/03/17 08:59:13;;;;;;;0.40;0.40;;;;;;;12.62;51.31;100156.78;5095682;28;20066;-67
2024/03/17 09:01:40;;;;;;;0.30;0.30;;;;;;;12.61;50.70;100154.25;5078284;28;20040;-66
2024/03/17 09:04:11;;;;;;;0.40;0.40;;;;;;;12.59;50.16;100155.97;5078082;28;20048;-67
2024/03/17 09:06:38;;;;;;;0.40;0.40;;;;;;;12.62;49.54;100150.84;5095498;28;20047;-67
2024/03/17 09:09:06;;;;;;;0.43;0.43;;;;;;;12.80;50.72;100145.69;5095758;28;20036;-67
2024/03/17 09:11:34;;;;;;;0.30;0.30;;;;;;;12.90;50.78;100147.38;5095171;28;20460;-67
2024/03/17 09:14:03;;;;;;;3.13;1.00;;;;;;;13.09;50.45;100148.19;5078212;28;20055;-67
2024/03/17 09:16:32;;;;;;;0.50;0.50;;;;;;;13.17;49.86;100142.16;5095662;28;20035;-67
2024/03/17 09:18:59;;;;;;;1.70;1.20;;;;;;;13.05;48.04;100139.59;5095598;28;20043;-67
2024/03/17 09:21:27;;;;;;;0.73;0.73;;;;;;;13.08;48.93;100133.66;5094890;28;20040;-66
2024/03/17 09:23:55;;;;;;;0.75;0.60;;;;;;;13.15;47.97;100133.63;5078291;28;20036;-67
2024/03/17 09:26:23;;;;;;;1.38;1.30;;;;;;;13.28;47.71;100148.13;5095359;28;20047;-68
2024/03/17 09:28:50;;;;;;;0.40;0.40;;;;;;;13.41;48.23;100142.06;5094988;28;20040;-68
2024/03/17 09:31:20;;;;;;;0.40;0.40;;;;;;;13.42;46.87;100137.78;5095330;28;20044;-67
2024/03/17 09:33:48;;;;;;;2.00;1.20;;;;;;;13.58;47.22;100136.84;5077737;28;20036;-67
2024/03/17 09:36:18;;;;;;;0.50;0.50;;;;;;;13.58;46.55;100138.59;5094721;28;20406;-67
2024/03/17 09:38:46;;;;;;;0.85;0.77;;;;;;;13.67;46.88;100128.25;5095013;28;20048;-67
2024/03/17 09:41:24;;;;;;;0.75;0.75;;;;;;;13.88;46.38;100139.25;5094575;28;20458;-69
2024/03/17 09:43:55;;;;;;;1.13;0.75;;;;;;;13.77;45.53;100140.19;5095152;28;20076;-67
2024/03/17 09:46:26;;;;;;;0.40;0.40;;;;;;;13.76;45.29;100135.91;5077877;28;20090;-67
2024/03/17 09:48:55;;;;;;;0.50;0.50;;;;;;;13.91;45.40;100138.38;5094847;28;20079;-68
2024/03/17 09:51:25;;;;;;;0.73;0.73;;;;;;;13.89;45.09;100135.78;5094400;28;20424;-66
2024/03/17 09:53:53;;;;;;;0.50;0.50;;;;;;;14.17;46.60;100136.47;5094705;28;20036;-67
2024/03/17 09:56:22;;;;;;;0.50;0.50;;;;;;;14.38;46.88;100135.44;5076322;28;20055;-68
2024/03/17 09:58:51;;;;;;;0.47;0.47;;;;;;;14.47;46.03;100131.06;5094459;28;20428;-68
2024/03/17 10:01:19;;;;;;;1.20;1.10;;;;;;;14.54;46.78;100122.44;5111221;28;20452;-68
2024/03/17 10:03:51;;;;;;;0.50;0.50;;;;;;;14.51;46.05;100122.50;5094317;28;20055;-67
2024/03/17 10:06:21;;;;;;;1.35;1.25;;;;;;;14.41;45.53;100115.75;5094677;28;20059;-68
2024/03/17 10:08:48;;;;;;;;;;;;;;;14.46;45.82;100118.25;5094744;28;20131;-67
2024/03/17 10:11:18;;;;;;;0.40;0.40;;;;;;;14.46;46.45;100124.25;5094572;28;19923;-68
2024/03/17 10:13:59;;;;;;;0.57;0.57;;;;;;;14.45;46.50;100119.97;5076655;28;20040;-67
2024/03/17 10:16:29;;;;;;;0.60;0.60;;;;;;;14.61;47.47;100124.09;5094192;28;20086;-68
2024/03/17 10:19:10;;;;;;;0.73;0.73;;;;;;;14.20;44.89;100069.69;5094186;28;20044;-67
2024/03/17 10:21:38;;;;;;;0.75;0.60;;;;;;;14.62;45.25;100109.53;5093906;28;20048;-67
2024/03/17 10:24:08;;;;;;;0.50;0.50;;;;;;;14.62;44.49;100110.38;5094039;28;20040;-68
2024/03/17 10:26:42;;;;;;;0.50;0.50;;;;;;;14.74;45.17;100119.69;5094283;28;20123;-68
2024/03/17 10:29:30;;;;;;;0.70;0.65;;;;;;;14.80;45.18;100124.78;5077184;28;20070;-67
2024/03/17 10:32:01;;;;;;;1.00;0.88;;;;;;;14.62;44.20;100112.09;5093991;28;20043;-68
2024/03/17 10:34:36;;;;;;;0.40;0.40;;;;;;;14.68;45.48;100125.72;5076482;28;20383;-67
2024/03/17 10:37:11;;;;;;;0.50;0.50;;;;;;;14.98;45.65;100123.69;5093550;28;20055;-66
2024/03/17 10:39:40;;;;;;;0.98;0.88;;;;;;;15.08;45.52;100122.72;5093683;28;20052;-67
2024/03/17 10:42:09;;;;;;;0.50;0.50;;;;;;;15.06;44.80;100127.03;5059900;28;20409;-67
2024/03/17 10:44:39;;;;;;;0.73;0.60;;;;;;;15.06;44.66;100121.91;5093334;28;20405;-67
2024/03/17 10:47:09;;;;;;;0.40;0.40;;;;;;;14.81;43.21;100116.19;5093537;28;20044;-67
2024/03/17 10:49:39;;;;;;;0.40;0.40;;;;;;;14.73;43.55;100105.16;5093668;28;20104;-67
2024/03/17 10:52:09;;;;;;;0.43;0.43;;;;;;;14.27;43.66;100107.28;5076624;28;20566;-68
2024/03/17 10:54:37;;;;;;;;;;;;;;;14.13;44.52;100120.22;5093409;28;20052;-68
2024/03/17 10:57:25;;;;;;;0.50;0.50;;;;;;;14.41;44.50;100126.00;5059907;28;19920;-68
2024/03/17 10:59:54;;;;;;;0.45;0.45;;;;;;;14.61;44.71;100105.28;5076319;28;20401;-68
2024/03/17 11:02:27;;;;;;;1.05;1.05;;;;;;;14.37;44.29;100108.91;5093356;28;20394;-68
2024/03/17 11:05:00;;;;;;;0.47;0.47;;;;;;;13.94;45.35;100097.28;5073060;28;20056;-67
2024/03/17 11:07:31;;;;;;;1.35;1.25;;;;;;;14.12;45.57;100112.53;5056341;28;20501;-68
2024/03/17 11:10:03;;;;;;;0.63;0.63;;;;;;;14.16;45.72;100114.19;5072921;28;20048;-68
2024/03/17 11:12:50;;;;;;;0.50;0.50;;;;;;;14.19;45.24;100114.19;5056312;28;20437;-68
2024/03/17 11:15:39;;;;;;;0.70;0.70;;;;;;;14.20;45.22;100110.75;5072618;28;20474;-67
2024/03/17 11:18:47;;;;;;;0.63;0.63;;;;;;;14.42;45.66;100107.16;5056207;28;20056;-66
2024/03/17 11:21:25;;;;;;;0.50;0.50;;;;;;;14.62;45.48;100110.38;5049243;28;20055;-67
2024/03/17 11:23:57;;;;;;;0.50;0.50;;;;;;;14.64;44.66;100100.94;5056038;28;20044;-67
2024/03/17 11:26:30;;;;;;;0.43;0.43;;;;;;;14.78;44.25;100096.50;5072763;28;20056;-67
2024/03/17 11:29:00;;;;;;;0.70;0.70;;;;;;;14.84;44.89;100105.00;5072777;28;20084;-67
2024/03/17 11:31:35;;;;;;;0.47;0.47;;;;;;;14.70;43.89;100103.47;5072727;28;20045;-67
2024/03/17 11:34:04;;;;;;;0.75;0.75;;;;;;;14.62;45.34;100100.09;5072558;28;20040;-66
2024/03/17 11:36:41;;;;;;;0.63;0.60;;;;;;;14.51;44.25;100096.81;5081985;28;20525;-67
2024/03/17 11:39:19;;;;;;;0.40;0.40;;;;;;;14.60;44.34;100101.00;5055861;28;20540;-67
2024/03/17 11:41:48;;;;;;;0.55;0.55;;;;;;;14.78;44.47;100096.50;5072676;28;20056;-67